Date,TemperatureHighF,TemperatureAvgF,TemperatureLowF,DewpointHighF,DewpointAvgF,DewpointLowF,HumidityHigh,HumidityAvg,HumidityLow,PressureMaxIn,PressureMinIn,WindSpeedMaxMPH,WindSpeedAvgMPH,GustSpeedMaxMPH,PrecipitationSumIn
2013-1-1,29,25,15,26,21,12,90,82,72,30.13,30.02,7,2,11,0.01
2013-1-2,22,15,8,13,8,4,87,75,63,30.21,30.12,9,3,13,0.01
2013-1-3,30,24,15,25,18,7,87,78,70,30.23,30.11,14,5,16,0.00
2013-1-4,28,22,12,23,17,9,91,83,75,30.24,30.16,21,8,27,0.00
2013-1-5,34,28,21,30,24,19,92,85,75,30.26,30.00,14,5,19,0.01
2013-1-6,35,31,25,32,27,21,90,84,79,30.29,29.90,14,6,21,0.01
2013-1-7,35,27,19,26,22,17,94,83,70,30.36,30.12,12,4,21,0.00
2013-1-8,39,32,27,30,27,23,86,79,71,30.20,30.07,9,4,14,0.00
2013-1-9,48,41,32,35,30,21,83,66,43,30.42,30.03,15,6,22,0.00
2013-1-10,40,34,25,37,28,21,95,79,66,30.47,29.98,13,4,18,0.38
2013-1-11,54,49,38,51,46,37,96,91,84,29.98,29.70,13,6,25,0.01
2013-1-12,58,51,39,50,47,37,93,84,71,29.86,29.72,9,4,16,0.44
2013-1-13,38,32,19,37,30,15,96,93,85,30.14,29.71,13,5,20,0.11
2013-1-14,23,18,14,19,15,10,90,85,79,30.44,30.16,11,3,12,0.11
2013-1-15,28,22,14,22,18,12,92,85,75,30.41,30.12,5,1,9,0.01
2013-1-16,35,28,20,27,22,17,93,79,54,30.11,29.86,21,5,25,0.01
2013-1-17,34,30,22,28,22,13,89,72,57,30.34,30.01,17,4,22,0.00
2013-1-18,38,29,19,27,20,13,86,70,59,30.41,29.99,22,7,27,0.02
2013-1-19,47,42,37,36,32,27,79,70,62,29.99,29.71,22,11,30,0.02
2013-1-20,41,22,18,32,11,7,80,64,45,30.22,29.74,17,7,28,0.02
2013-1-21,18,12,6,8,3,-4,83,65,56,30.22,30.08,15,6,21,0.00
2013-1-22,13,7,2,-1,-4,-6,71,63,51,30.36,30.22,13,5,16,0.00
2013-1-23,19,14,8,16,6,-1,89,69,55,30.33,30.09,13,6,22,0.00
2013-1-24,19,16,10,15,8,5,90,73,54,30.60,30.18,10,3,20,0.00
2013-1-25,26,21,18,21,15,8,88,78,64,30.40,29.98,11,4,17,0.00
2013-1-26,26,24,21,21,18,16,84,79,70,30.39,30.06,10,3,16,0.00
2013-1-27,34,27,22,33,22,17,94,81,73,30.40,29.97,13,5,19,0.12
2013-1-28,50,45,35,49,44,33,98,97,94,30.00,29.84,14,5,22,0.09
2013-1-29,58,55,42,56,54,41,99,96,92,29.86,29.30,16,6,22,1.33
2013-1-30,54,44,26,53,42,23,99,94,87,29.45,29.10,19,6,25,0.11
2013-1-31,26,18,9,22,12,4,87,78,68,30.04,29.46,19,8,27,0.11
2013-2-1,15,9,3,10,3,-2,80,75,65,30.35,30.05,13,6,22,0.00
2013-2-2,25,20,16,22,17,10,92,89,78,30.22,29.94,13,4,16,0.00
2013-2-3,22,16,10,17,12,6,88,83,70,30.04,29.92,12,3,18,0.00
2013-2-4,26,23,18,23,20,14,93,89,85,30.04,29.80,8,2,13,0.01
2013-2-5,30,26,18,29,23,17,95,89,76,29.98,29.78,14,3,17,0.01
2013-2-6,34,31,26,27,24,20,84,75,63,30.22,29.99,7,2,12,0.03
2013-2-7,44,35,29,36,30,26,95,84,72,30.14,29.75,9,3,14,0.10
2013-2-8,35,32,28,33,27,21,96,81,68,30.31,29.75,16,6,23,0.11
2013-2-9,36,29,21,26,23,19,93,81,68,30.36,30.12,11,3,15,0.00
2013-2-10,49,39,32,47,34,24,95,83,72,30.11,29.54,14,6,24,0.14
2013-2-11,50,37,30,47,29,23,91,73,66,29.94,29.52,29,11,34,0.15
2013-2-12,32,29,26,25,23,21,85,77,71,30.06,29.90,13,5,18,0.00
2013-2-13,45,32,21,32,26,19,94,79,57,29.91,29.67,12,3,14,0.00
2013-2-14,41,36,33,34,30,24,89,79,62,29.91,29.66,16,6,27,0.00
2013-2-15,32,29,25,27,21,15,88,73,59,30.12,29.90,10,3,16,0.00
2013-2-16,24,19,15,20,12,5,87,75,54,30.12,30.04,17,5,23,0.00
2013-2-17,29,21,12,16,10,6,80,65,43,30.20,30.09,9,3,13,0.00
2013-2-18,53,39,25,44,30,15,91,70,61,30.10,29.41,22,8,34,0.19
2013-2-19,44,20,15,42,16,9,93,82,75,30.07,29.40,23,9,29,0.28
2013-2-20,21,16,11,19,12,7,89,83,77,30.31,30.07,12,5,21,0.00
2013-2-21,27,24,21,21,19,16,89,82,77,30.34,30.02,14,4,24,0.00
2013-2-22,34,28,22,32,26,19,96,91,77,30.02,29.82,15,6,22,0.05
2013-2-23,30,27,25,24,21,18,86,78,66,29.93,29.87,15,6,18,0.02
2013-2-24,37,28,19,24,21,17,90,76,59,30.11,29.92,8,3,11,0.04
2013-2-25,41,32,21,30,26,20,93,79,61,30.16,29.95,9,3,15,0.01
2013-2-26,34,33,31,33,29,25,96,87,71,29.94,29.41,17,6,28,0.75
2013-2-27,33,32,32,33,32,31,97,97,96,29.57,29.41,10,4,14,0.28
2013-2-28,38,34,32,33,31,28,97,90,80,29.93,29.57,15,5,19,0.11
2013-3-1,34,31,26,29,26,20,92,82,67,30.08,29.93,10,4,13,0.00
2013-3-2,32,28,25,23,20,17,81,72,60,30.09,30.03,12,4,19,0.00
2013-3-3,33,27,22,23,19,14,88,72,51,30.07,29.99,13,4,16,0.00
2013-3-4,36,27,18,28,20,16,92,77,56,30.11,29.98,9,2,11,0.00
2013-3-5,33,30,27,29,27,25,96,90,76,30.00,29.69,16,6,17,0.02
2013-3-6,34,31,26,31,28,25,96,90,81,30.21,29.81,11,4,16,0.14
2013-3-7,37,32,26,31,28,23,95,84,66,30.37,30.21,8,3,12,0.22
2013-3-8,38,30,19,25,22,17,93,76,57,30.47,30.34,6,1,10,0.03
2013-3-9,43,36,29,35,29,22,81,75,66,30.33,29.88,12,5,16,0.00
2013-3-10,58,51,41,47,40,35,88,69,56,29.88,29.63,9,4,16,0.07
2013-3-11,53,43,33,49,41,31,96,90,69,29.71,29.47,21,6,25,0.13
2013-3-12,36,32,30,30,27,24,93,82,64,29.92,29.72,15,7,25,0.00
2013-3-13,31,27,24,26,20,14,90,75,54,30.27,29.92,16,7,24,0.00
2013-3-14,41,30,23,30,20,16,90,66,42,30.29,30.08,10,3,16,0.00
2013-3-15,47,37,30,41,34,28,95,88,65,30.09,29.72,8,3,10,0.24
2013-3-16,41,35,30,40,33,24,97,91,78,30.04,29.58,10,5,19,0.01
2013-3-17,36,31,29,24,23,20,79,72,59,30.15,30.00,15,6,21,0.00
2013-3-18,35,31,27,34,28,21,96,89,76,30.00,29.54,21,7,29,0.04
2013-3-19,35,27,20,20,16,13,76,64,49,30.01,29.73,24,9,30,0.00
2013-3-20,28,24,19,17,12,6,89,61,44,30.01,29.94,15,7,20,0.00
2013-3-21,33,23,15,17,15,11,89,72,47,30.00,29.93,12,4,19,0.00
2013-3-22,42,30,19,20,18,16,88,63,39,30.02,29.92,8,2,14,0.00
2013-3-23,41,32,25,25,23,19,86,70,53,30.07,29.94,13,3,14,0.00
2013-3-24,36,32,28,29,25,23,89,77,61,29.95,29.53,16,8,28,0.00
2013-3-25,36,32,28,30,28,27,95,86,71,29.95,29.55,15,5,22,0.07
2013-3-26,38,35,31,31,29,27,92,80,65,30.17,29.95,12,4,18,0.00
2013-3-27,43,36,30,30,26,21,88,70,45,30.25,30.17,15,3,16,0.00
2013-3-28,49,37,26,26,23,21,87,61,33,30.29,30.20,10,2,15,0.00
2013-3-29,53,40,30,30,25,21,89,58,31,30.26,30.15,9,1,15,0.00
2013-3-30,55,43,28,36,30,24,85,62,43,30.18,29.85,9,2,16,0.00
2013-3-31,60,49,40,44,37,29,95,66,37,29.85,29.59,17,5,25,0.01
2013-4-1,40,34,28,29,21,16,75,59,41,30.09,29.74,16,5,22,0.00
2013-4-2,42,33,24,21,15,6,73,50,22,30.24,30.09,16,4,23,0.00
2013-4-3,46,35,22,24,16,9,83,52,23,30.39,30.24,11,2,11,0.00
2013-4-4,57,41,27,26,21,18,77,49,23,30.28,29.91,11,2,12,0.00
2013-4-5,52,43,33,32,26,20,80,53,29,30.12,29.89,11,4,16,0.00
2013-4-6,65,50,33,42,32,26,76,53,36,30.09,29.64,19,7,29,0.00
2013-4-7,63,55,47,47,42,37,84,63,46,29.87,29.58,17,6,34,0.11
2013-4-8,72,54,44,57,46,36,93,74,50,29.89,29.62,19,6,33,0.10
2013-4-9,76,60,47,61,52,43,87,74,55,29.91,29.73,18,5,29,0.00
2013-4-10,56,50,44,53,48,43,96,92,81,29.82,29.70,16,4,21,0.25
2013-4-11,46,44,41,45,43,40,97,96,91,29.74,29.50,16,6,41,2.09
2013-4-12,43,40,37,42,36,31,97,86,74,29.80,29.51,19,7,23,0.09
2013-4-13,44,39,35,35,31,28,92,75,58,29.93,29.80,18,6,22,0.03
2013-4-14,63,49,38,51,41,33,85,74,61,29.96,29.71,16,5,19,0.00
2013-4-15,63,59,49,57,52,46,93,79,66,29.83,29.71,16,5,19,0.01
2013-4-16,52,47,43,46,40,33,95,79,56,30.16,29.82,11,4,15,0.43
2013-4-17,55,49,44,49,43,36,96,79,69,30.18,29.82,16,6,24,1.57
2013-4-18,71,60,47,66,57,45,97,92,82,29.81,29.44,22,7,22,1.13
2013-4-19,52,39,34,50,33,29,95,80,71,29.82,29.42,26,9,33,0.46
2013-4-20,44,37,32,31,24,16,88,62,35,30.38,29.82,14,5,24,0.01
2013-4-21,50,40,30,33,25,21,74,57,40,30.50,30.33,11,4,18,0.00
2013-4-22,63,50,35,40,34,31,85,57,33,30.33,30.03,10,3,16,0.00
2013-4-23,66,54,40,55,45,39,95,74,57,30.03,29.74,13,4,24,0.80
2013-4-24,46,40,35,39,33,29,95,79,52,30.10,29.77,16,5,23,0.22
2013-4-25,50,44,38,36,33,27,80,67,43,30.29,30.06,16,5,22,0.00
2013-4-26,63,48,33,42,36,30,90,64,43,30.35,30.23,13,4,19,0.00
2013-4-29,69,65,60,55,54,52,79,66,58,29.86,29.78,11,5,16,0.00
2013-4-30,80,68,56,63,57,51,85,69,51,29.89,29.80,14,5,21,0.00
2013-5-1,82,73,61,60,56,52,76,58,37,30.05,29.89,12,2,17,0.00
2013-5-2,79,68,48,58,54,44,84,63,43,30.07,29.95,7,3,13,0.00
2013-5-3,75,61,45,62,51,41,89,71,51,30.00,29.84,13,3,18,0.01
2013-5-4,72,66,59,49,45,39,62,48,30,29.90,29.82,14,6,21,0.00
2013-5-5,71,63,52,52,48,44,74,59,42,29.91,29.86,16,4,23,0.00
2013-5-6,74,65,56,55,47,41,65,54,43,29.91,29.83,10,3,16,0.00
2013-5-7,76,66,54,56,51,45,82,61,43,29.93,29.86,9,2,15,0.00
2013-5-8,80,68,55,56,51,47,87,59,34,29.93,29.84,9,2,17,0.00
2013-5-9,78,64,52,60,54,49,93,73,37,29.88,29.77,14,2,20,0.10
2013-5-10,64,55,43,60,52,41,96,90,78,29.84,29.67,15,6,20,0.09
2013-5-11,58,46,40,51,42,34,97,85,60,29.93,29.75,19,4,27,0.07
2013-5-12,52,44,36,36,31,26,87,62,40,30.05,29.93,19,4,23,0.00
2013-5-13,62,50,35,35,29,20,90,50,22,30.11,30.01,10,2,17,0.00
2013-5-14,88,69,52,61,46,27,61,45,27,30.01,29.61,19,5,23,0.00
2013-5-15,84,76,68,62,54,-100,75,51,33,29.70,29.56,15,6,23,0.03
2013-5-16,84,71,55,55,48,41,90,51,23,29.87,29.70,7,1,10,0.00
2013-5-17,81,69,58,63,53,45,84,59,33,29.96,29.86,12,3,19,0.01
2013-5-18,79,69,59,62,54,42,78,58,53,30.00,29.87,9,3,15,0.00
2013-5-19,86,74,60,65,61,53,79,63,46,29.90,29.71,9,2,15,0.00
2013-5-20,75,74,74,67,66,65,77,74,70,29.75,29.73,6,3,11,0.00
2013-5-21,83,76,65,67,64,62,88,68,55,29.69,29.59,16,6,23,0.44
2013-5-22,75,69,62,65,63,57,94,81,62,29.66,29.56,16,4,24,0.18
2013-5-23,62,52,44,59,49,40,95,90,85,30.12,29.65,19,5,20,0.13
2013-5-24,59,49,38,41,38,36,93,69,44,30.32,30.13,9,3,17,0.00
2013-5-25,65,52,39,49,41,37,93,68,41,30.32,30.18,8,1,12,0.00
2013-5-26,69,59,45,53,44,40,91,61,36,30.23,30.08,10,3,15,0.00
2013-5-27,61,56,50,59,53,48,97,90,71,30.09,29.81,14,4,19,1.04
2013-5-28,79,70,58,70,65,57,98,85,70,29.84,29.70,17,5,27,0.69
2013-5-29,84,73,62,69,65,61,96,77,57,29.89,29.76,11,4,18,0.05
2013-5-30,85,77,70,70,66,63,82,70,56,29.91,29.77,18,5,27,0.00
2013-5-31,77,70,65,69,65,63,95,84,74,29.84,29.70,17,5,29,0.90
2013-6-1,73,68,64,67,64,62,97,86,73,29.75,29.62,17,5,41,0.93
2013-6-2,66,58,48,60,53,42,92,82,69,29.94,29.62,14,5,19,0.01
2013-6-3,68,56,43,50,44,41,94,68,44,30.04,29.95,13,2,14,0.00
2013-6-4,72,62,47,51,47,45,92,62,39,30.09,30.00,13,2,13,0.00
2013-6-5,76,68,56,55,50,43,66,54,43,30.02,29.82,10,3,13,0.00
2013-6-6,75,65,59,56,50,42,76,60,46,29.84,29.73,12,4,14,0.00
2013-6-7,72,64,56,56,53,48,88,70,51,29.82,29.76,9,2,12,0.00
2013-6-8,77,66,54,57,53,47,87,65,45,29.92,29.81,8,1,10,0.00
2013-6-9,81,71,62,64,60,55,93,68,43,29.93,29.75,9,3,17,0.41
2013-6-10,76,68,64,67,64,61,97,87,66,29.77,29.65,13,3,15,0.87
2013-6-11,84,71,60,67,63,60,98,80,51,29.85,29.73,11,2,13,0.02
2013-6-12,86,74,67,77,70,65,97,87,72,29.81,29.50,12,2,17,2.29
2013-6-13,74,67,58,67,59,53,97,77,50,29.90,29.42,19,5,23,0.08
2013-6-14,80,66,53,61,57,52,94,74,44,30.02,29.89,8,2,15,0.00
2013-6-15,74,66,59,65,62,58,94,86,69,29.99,29.82,8,2,12,0.11
2013-6-16,81,73,66,69,67,63,93,80,65,29.83,29.78,11,4,18,0.06
2013-6-17,86,76,66,68,64,56,96,69,36,29.85,29.76,8,2,14,0.00
2013-6-18,76,70,63,63,60,55,90,73,57,29.94,29.77,11,4,14,0.00
2013-6-19,78,68,56,55,51,48,74,58,38,30.06,29.93,7,2,10,0.00
2013-6-20,82,72,60,67,61,53,82,69,53,30.10,30.01,5,1,8,0.00
2013-6-21,86,74,68,69,64,60,91,72,46,30.08,29.85,9,3,21,0.07
2013-6-22,86,75,68,75,69,65,92,82,61,30.00,29.88,8,3,15,0.00
2013-6-23,86,76,67,72,68,64,91,76,57,29.98,29.88,12,4,16,0.00
2013-6-24,84,74,66,73,68,64,95,82,61,29.99,29.83,10,4,30,1.12
2013-6-25,88,76,66,76,70,65,95,83,64,29.89,29.70,16,4,30,0.07
2013-6-26,79,70,65,74,68,64,97,91,81,29.83,29.63,9,2,14,2.99
2013-6-27,87,74,67,74,69,66,98,85,62,29.69,29.57,10,2,28,0.02
2013-6-28,81,73,66,66,64,61,92,75,53,29.58,29.48,11,4,19,0.00
2013-6-29,78,67,63,65,63,60,96,88,62,29.62,29.46,11,2,18,0.10
2013-6-30,78,67,62,66,62,60,97,83,61,29.84,29.62,10,4,16,0.25
2013-7-1,75,66,59,62,56,48,81,68,51,29.94,29.83,18,5,22,0.00
2013-7-2,65,62,57,63,58,53,96,87,65,29.95,29.90,10,3,15,0.40
2013-7-3,76,70,64,66,64,63,98,84,68,29.99,29.91,9,3,17,0.01
2013-7-4,77,69,59,66,62,58,98,80,60,30.05,29.97,6,1,9,0.00
2013-7-5,82,73,64,69,66,63,96,80,61,30.03,29.93,8,1,10,0.00
2013-7-6,78,73,68,71,68,66,94,86,76,29.99,29.90,7,2,12,0.00
2013-7-7,82,74,66,72,69,65,96,84,65,29.96,29.88,10,3,14,0.00
2013-7-8,82,76,71,75,71,69,94,84,76,29.97,29.86,15,4,16,0.24
2013-7-9,85,79,73,77,74,71,97,86,74,29.91,29.79,11,4,16,0.00
2013-7-10,81,75,63,76,70,58,95,84,61,29.89,29.73,10,3,35,0.91
2013-7-11,79,68,58,64,57,53,95,71,45,29.99,29.89,15,3,15,0.00
2013-7-12,81,70,58,62,58,55,93,68,44,30.05,29.97,8,2,12,0.00
2013-7-13,83,72,60,68,63,57,92,74,55,30.07,30.01,10,2,13,0.00
2013-7-14,88,78,66,74,69,64,95,76,56,30.11,30.05,8,2,11,0.00
2013-7-15,90,81,72,76,73,70,95,79,61,30.18,30.10,9,2,12,0.00
2013-7-16,91,82,73,75,73,71,93,74,55,30.23,30.15,8,2,11,0.00
2013-7-17,92,83,73,76,73,71,93,74,56,30.22,30.07,8,2,11,0.00
2013-7-18,92,83,74,77,74,72,93,75,56,30.09,29.88,10,2,13,0.00
2013-7-19,92,84,76,77,74,73,90,75,57,29.89,29.68,17,6,21,0.07
2013-7-20,89,81,74,75,69,63,94,68,44,29.81,29.67,13,3,16,0.02
2013-7-21,85,77,66,71,66,63,90,70,50,29.88,29.76,7,2,10,0.00
2013-7-22,83,74,66,71,68,65,96,81,61,29.79,29.66,8,2,15,0.78
2013-7-23,80,72,60,69,65,54,93,78,62,29.82,29.61,14,5,21,0.00
2013-7-24,73,63,53,56,52,49,88,69,48,29.95,29.82,9,3,14,0.00
2013-7-25,79,67,54,60,56,52,94,70,45,30.02,29.95,8,1,9,0.00
2013-7-26,74,68,61,65,60,56,85,76,64,29.99,29.81,8,3,19,0.02
2013-7-27,72,66,57,65,60,51,95,82,67,29.82,29.74,11,4,20,0.02
2013-7-28,68,59,52,54,51,48,90,76,53,29.94,29.79,11,4,15,0.02
2013-7-29,74,63,54,59,54,50,87,74,58,30.10,29.94,8,3,17,0.00
2013-7-30,76,67,55,64,59,53,95,77,56,30.12,30.00,7,1,9,0.00
2013-7-31,70,67,64,68,65,62,97,94,83,30.01,29.85,5,1,9,0.24
2013-8-1,79,69,62,66,60,55,98,76,44,29.89,29.84,10,2,16,0.00
2013-8-2,83,65,59,72,62,56,97,90,71,29.90,29.73,9,2,16,2.06
2013-8-3,79,69,63,67,60,52,99,77,44,30.00,29.85,10,2,17,0.01
2013-8-4,76,66,55,60,55,50,96,71,42,30.10,29.99,11,2,14,0.00
2013-8-5,73,66,57,63,58,53,88,76,65,30.04,29.84,11,2,15,0.00
2013-8-6,78,70,62,70,66,60,95,86,74,29.85,29.78,8,2,14,0.07
2013-8-7,83,73,69,74,70,67,98,89,70,29.82,29.73,10,3,13,0.54
2013-8-8,79,71,64,68,66,62,97,83,68,29.90,29.81,9,3,13,0.01
2013-8-9,81,72,63,66,61,57,89,71,49,29.93,29.86,7,1,9,0.00
2013-8-10,81,73,66,68,64,60,93,75,55,30.02,29.93,9,2,12,0.00
2013-8-11,81,72,59,65,60,57,93,68,47,30.03,29.95,8,1,12,0.00
2013-8-12,82,73,66,69,66,62,92,78,61,29.97,29.75,10,3,13,0.02
2013-8-13,68,64,57,65,54,47,96,73,48,30.03,29.79,14,4,20,0.01
2013-8-14,70,60,50,51,49,46,87,69,48,30.13,30.03,8,2,13,0.00
2013-8-15,75,62,48,58,52,47,95,74,48,30.11,30.02,6,1,8,0.00
2013-8-16,77,68,58,59,57,51,93,70,42,30.09,30.04,7,1,11,0.00
2013-8-17,77,67,55,60,57,53,95,73,46,30.16,30.06,10,2,13,0.00
2013-8-18,81,70,57,64,59,55,93,72,46,30.12,30.00,6,1,9,0.00
2013-8-19,84,72,60,66,62,58,94,75,48,30.04,29.95,8,1,10,0.00
2013-8-20,84,74,63,68,65,62,94,77,55,30.06,29.97,8,1,11,0.00
2013-8-21,86,76,67,71,67,65,91,74,51,30.03,29.90,8,2,12,0.00
2013-8-22,76,71,67,70,68,65,96,88,76,30.02,29.87,9,3,18,0.18
2013-8-23,81,72,65,67,62,55,96,75,42,30.07,29.98,8,2,12,0.00
2013-8-24,82,69,56,61,57,54,93,67,39,30.20,30.08,9,2,12,0.00
2013-8-25,86,73,58,67,62,56,92,71,48,30.20,30.07,9,2,12,0.00
2013-8-26,87,76,67,72,68,61,84,74,58,30.11,29.93,11,3,14,0.00
2013-8-27,90,80,73,77,72,69,89,77,58,29.94,29.78,13,5,17,0.00
2013-8-28,83,78,71,75,71,67,95,80,72,29.92,29.75,13,5,15,0.00
2013-8-29,88,76,67,71,69,66,99,79,51,29.98,29.89,6,1,9,0.00
2013-8-30,90,78,67,76,70,65,95,79,58,29.89,29.66,17,3,20,0.04
2013-8-31,77,73,68,72,70,67,96,91,82,29.75,29.64,6,1,15,0.12
2013-9-1,81,73,66,73,70,66,98,89,74,29.71,29.64,10,2,12,0.01
2013-9-2,78,71,61,70,63,56,94,78,57,29.87,29.66,11,4,15,0.00
2013-9-3,74,64,54,58,55,52,92,76,54,29.99,29.87,7,2,12,0.00
2013-9-4,81,67,54,61,57,52,95,74,42,30.05,29.96,7,2,13,0.01
2013-9-5,79,67,59,59,55,47,92,67,41,30.15,30.02,8,2,13,0.00
2013-9-6,80,67,51,64,54,47,86,66,49,30.16,29.96,9,1,10,0.00
2013-9-7,86,73,63,68,63,56,88,71,48,29.97,29.81,10,2,13,0.00
2013-9-8,76,71,66,68,66,63,92,85,76,29.93,29.83,11,3,15,0.00
2013-9-9,91,76,65,75,68,59,90,77,59,29.91,29.76,14,3,14,0.00
2013-9-10,95,84,74,74,70,65,90,66,39,29.94,29.81,11,4,16,0.00
2013-9-11,94,80,73,72,70,66,90,72,41,29.96,29.83,13,5,20,0.03
2013-9-12,82,71,61,69,62,53,96,75,44,29.92,29.75,11,3,23,0.29
2013-9-13,64,58,51,53,45,43,81,64,47,30.05,29.93,13,4,18,0.00
2013-9-14,68,55,42,47,43,39,95,68,37,30.14,30.00,6,1,9,0.00
2013-9-15,66,57,49,57,50,43,95,78,60,30.04,29.93,7,2,12,0.05
2013-9-16,69,59,53,56,52,47,96,79,48,30.24,30.04,7,2,9,0.00
2013-9-17,69,57,45,53,49,43,94,75,55,30.28,30.09,9,2,11,0.00
2013-9-18,80,67,56,66,57,48,93,70,55,30.09,29.88,8,2,14,0.14
2013-9-19,72,68,64,70,67,64,98,95,89,29.94,29.77,9,4,14,0.86
2013-9-20,73,70,64,71,68,59,95,90,82,29.79,29.67,10,4,12,0.00
2013-9-21,66,60,54,58,52,47,95,75,53,29.83,29.66,15,4,21,0.00
2013-9-22,66,57,49,51,47,45,93,72,50,29.97,29.83,9,2,12,0.00
2013-9-23,68,55,42,49,46,41,93,74,48,30.05,29.95,9,2,12,0.00
2013-9-24,69,57,45,50,47,43,93,72,46,30.02,29.84,10,2,12,0.00
2013-9-25,74,60,49,54,50,47,95,73,41,29.89,29.80,8,2,12,0.00
2013-9-26,78,61,48,56,50,46,96,71,35,30.01,29.88,8,1,11,0.00
2013-9-27,78,64,47,55,49,44,89,62,31,30.11,29.99,9,2,15,0.00
2013-9-28,80,67,52,58,55,50,92,68,44,30.06,29.88,9,3,18,0.00
2013-9-29,69,63,52,61,55,50,94,76,57,29.92,29.85,10,3,13,0.13
2013-9-30,72,58,45,57,52,44,95,80,57,29.93,29.81,9,1,17,0.00
2013-10-1,74,65,60,64,61,55,97,87,71,29.93,29.83,12,4,17,0.00
2013-10-2,81,71,64,68,65,63,97,82,59,29.99,29.89,6,2,11,0.00
2013-10-3,77,68,64,69,65,62,98,91,71,29.92,29.79,8,2,22,0.94
2013-10-4,81,72,65,72,67,63,93,86,71,29.90,29.83,8,2,12,0.01
2013-10-5,77,70,66,72,68,65,97,93,82,29.89,29.70,9,2,23,0.62
2013-10-6,67,58,47,67,54,41,97,85,61,29.74,29.59,12,4,17,0.32
2013-10-7,62,50,44,49,44,41,91,80,50,30.04,29.68,14,4,16,0.00
2013-10-8,74,58,46,52,48,44,94,71,43,30.15,30.04,7,2,14,0.00
2013-10-9,71,58,44,50,46,42,93,68,39,30.18,30.06,8,1,12,0.00
2013-10-10,74,59,45,54,49,44,94,71,41,30.11,29.98,6,1,10,0.00
2013-10-11,75,60,45,52,48,44,94,68,38,30.03,29.90,7,1,10,0.00
2013-10-12,77,65,51,63,55,49,93,73,51,30.03,29.91,10,2,15,0.02
2013-10-13,65,55,44,58,46,40,95,72,43,30.30,30.04,10,2,15,0.01
2013-10-14,65,52,41,47,43,39,94,75,47,30.32,30.12,9,2,13,0.01
2013-10-15,64,56,48,62,53,44,96,89,79,30.12,29.75,12,4,17,0.19
2013-10-16,62,51,45,60,46,42,93,85,79,29.87,29.76,16,4,18,0.00
2013-10-17,50,48,42,47,45,40,94,88,81,29.86,29.75,9,3,16,0.09
2013-10-18,59,46,40,47,41,38,95,84,61,29.90,29.81,13,3,20,0.01
2013-10-19,52,44,41,41,40,34,94,85,51,29.87,29.74,12,3,20,0.06
2013-10-20,62,59,56,44,44,43,64,57,52,29.77,29.73,14,7,21,0.00
2013-10-21,56,49,37,46,40,27,86,72,61,29.89,29.75,15,6,25,0.00
2013-10-22,46,37,31,34,29,22,93,74,39,29.94,29.85,7,3,16,0.05
2013-10-23,44,38,35,37,33,26,95,82,55,29.95,29.80,10,3,19,0.08
2013-10-24,44,37,32,32,28,25,90,71,48,30.21,29.94,13,4,18,0.00
2013-10-25,49,39,31,30,28,26,85,65,42,30.35,30.10,14,4,20,0.00
2013-10-26,54,44,38,38,32,27,83,63,54,30.10,29.78,19,7,25,0.00
2013-10-27,54,42,30,34,31,29,92,69,40,30.03,29.92,9,2,15,0.00
2013-10-28,58,43,32,40,35,29,93,75,45,30.27,30.00,5,1,9,0.00
2013-10-29,54,44,34,42,38,31,92,79,58,30.31,30.12,9,3,11,0.00
2013-10-30,62,53,41,61,49,38,98,88,75,30.11,29.79,13,2,15,0.55
2013-10-31,64,60,52,62,59,50,98,95,93,29.78,29.15,15,7,28,1.74
2013-11-1,51,47,44,50,43,40,95,84,69,29.65,29.22,16,6,31,0.08
2013-11-2,46,44,41,44,42,38,96,91,78,30.03,29.64,11,3,17,0.08
2013-11-3,48,43,39,40,38,36,96,84,67,30.27,30.03,9,3,15,0.02
2013-11-4,54,46,39,43,39,36,87,74,59,30.28,30.14,16,5,19,0.00
2013-11-5,56,52,50,49,46,43,86,77,69,30.25,30.00,11,4,22,0.00
2013-11-6,57,51,42,53,47,37,95,87,66,30.01,29.76,17,8,24,0.45
2013-11-7,46,39,32,38,31,26,87,73,51,30.18,30.01,14,4,20,0.00
2013-11-8,47,38,30,34,31,28,93,75,55,30.28,30.05,11,3,15,0.00
2013-11-9,60,50,44,42,37,31,74,61,48,30.04,29.81,20,8,27,0.00
2013-11-10,46,40,34,38,31,26,87,69,55,30.24,29.96,23,5,29,0.00
2013-11-11,47,39,29,39,32,24,93,78,65,30.33,30.02,13,5,21,0.18
2013-11-12,31,28,24,28,23,18,91,83,73,30.59,30.34,8,2,17,0.03
2013-11-13,37,28,20,22,19,16,86,70,51,30.57,30.22,17,6,22,0.01
2013-11-14,52,40,30,27,23,20,71,54,36,30.21,29.95,16,8,24,0.00
2013-11-15,51,45,40,34,29,25,69,54,45,29.99,29.92,16,5,19,0.00
2013-11-16,58,50,41,56,46,34,94,87,70,29.95,29.63,14,6,24,0.16
2013-11-17,64,57,45,61,54,38,94,88,71,29.63,29.14,28,9,36,0.76
2013-11-18,44,40,36,38,32,28,85,74,60,30.15,29.62,16,7,25,0.00
2013-11-19,42,37,33,30,28,26,79,71,59,30.31,30.16,8,2,15,0.00
2013-11-20,43,37,30,35,29,25,84,75,61,30.30,30.10,14,4,18,0.00
2013-11-21,46,45,42,46,42,35,97,88,76,30.17,30.10,8,2,17,0.54
2013-11-22,46,39,29,46,37,27,97,91,82,30.38,30.10,18,4,24,0.04
2013-11-23,30,25,21,27,20,15,92,84,69,30.58,30.33,15,5,26,0.00
2013-11-24,26,21,16,17,12,4,89,70,40,30.65,30.42,9,4,13,0.00
2013-11-25,30,26,20,26,18,8,90,71,57,30.42,30.10,17,7,22,0.00
2013-11-26,34,30,26,29,26,23,92,85,78,30.10,29.94,11,4,19,0.00
2013-11-27,27,24,22,25,21,15,94,87,70,30.21,29.98,12,4,19,0.03
2013-11-28,35,26,21,21,17,14,82,69,54,30.41,30.17,10,3,17,0.02
2013-11-29,35,30,25,24,21,19,81,71,59,30.60,30.42,8,2,10,0.01
2013-11-30,49,38,30,32,28,23,81,68,52,30.43,30.04,10,4,18,0.01
2013-12-1,44,37,29,37,31,27,92,79,64,30.04,29.94,6,2,11,0.00
2013-12-2,39,34,28,33,30,26,93,86,74,29.93,29.77,8,2,11,0.04
2013-12-3,49,42,34,46,40,32,95,94,91,29.77,29.67,9,4,13,0.12
2013-12-4,60,51,45,57,50,43,98,94,90,29.73,29.51,15,5,18,0.00
2013-12-5,59,33,25,56,28,19,90,80,72,30.16,29.55,16,6,23,0.00
2013-12-6,26,25,22,21,19,14,80,77,70,30.42,30.14,12,4,14,0.00
2013-12-7,23,20,15,15,12,11,86,74,63,30.62,30.42,10,4,15,0.00
2013-12-8,26,21,15,24,17,11,94,83,66,30.54,29.93,14,5,19,0.00
2013-12-9,27,22,13,25,17,5,94,81,68,30.18,29.91,21,6,22,0.00
2013-12-10,24,14,2,13,6,-3,81,70,60,30.28,30.04,20,6,26,0.00
2013-12-11,23,17,6,18,11,-1,90,79,65,30.49,30.27,13,4,18,0.00
2013-12-12,21,10,-3,12,2,-7,83,72,58,30.52,30.25,15,5,22,0.00
2013-12-13,28,22,15,26,16,9,93,76,66,30.24,30.10,10,3,12,0.01
2013-12-14,27,24,21,26,23,19,95,94,91,30.12,29.79,12,4,15,0.00
2013-12-15,26,16,10,24,13,6,93,87,81,30.09,29.88,13,5,22,0.00
2013-12-16,20,16,11,18,13,7,93,87,78,30.15,30.00,8,2,10,0.00
2013-12-17,30,22,16,26,20,15,94,90,80,30.05,29.94,10,5,21,0.00
2013-12-18,38,24,15,27,17,12,89,75,61,30.18,29.87,14,5,19,0.01
2013-12-19,43,40,38,41,35,27,94,82,66,29.93,29.77,15,5,22,0.30
2013-12-20,46,42,36,45,42,35,98,97,92,29.77,29.63,10,2,12,0.44
2013-12-21,35,34,33,35,34,32,98,98,96,29.77,29.49,15,4,18,0.95
2013-12-22,36,33,29,34,32,28,97,95,92,30.01,29.44,14,5,20,0.16
2013-12-23,29,22,5,28,18,1,94,84,69,30.39,30.01,12,6,19,0.00
2013-12-24,18,9,1,13,4,-3,86,81,73,30.55,30.39,11,4,14,0.00
2013-12-25,27,23,17,25,19,13,94,84,76,30.44,30.08,15,5,18,0.00
2013-12-26,33,26,17,27,21,13,95,82,72,30.28,30.06,12,5,21,0.00
2013-12-27,42,36,29,33,30,26,90,80,70,30.28,30.10,13,6,22,0.01
2013-12-28,49,41,36,37,33,31,84,74,63,30.09,29.84,18,6,23,0.00
2013-12-29,39,33,22,32,28,19,91,82,71,30.04,29.72,15,6,22,0.00
2013-12-30,22,17,14,19,11,9,87,78,70,30.26,30.05,11,5,20,0.00
2013-12-31,16,13,8,13,9,4,90,84,71,30.35,30.13,12,3,16,0.00
2014-1-1,20,17,13,16,14,11,91,89,84,30.28,30.12,11,5,16,0.00
2014-1-2,15,13,7,12,9,1,91,85,72,30.35,30.02,15,7,20,0.00